CheckWX is a tool to help pilots better visualize weather data.  It is not intended as a substitute for an official pre-flight weather briefing.

10:48:26 UTC

ORBD TAF
Joint Base Balad Airport
Balad, Iraq
TAF ORBD 260255Z 2603/2709 33012KT 8000 HZ SKC QNH2963INS WND 290V020 BECMG 2605/2606 31014G22KT 8000 HZ SKC QNH2961INS WND 280V360 TEMPO 2609/2615 30017G27KT 6000 BLDU HZ BECMG 2616/2617 30009KT 9000 HZ SKC QNH2964NS TX48/2612Z TN28/2603Z

Jun-26@
03:00 UTC

Jun-26 @ 03:00 UTC

Jun-26@
05:00 UTC

Jun-26 @ 05:00 UTC

TAF ORBD 260255Z 2603/2709 33012KT 8000 HZ SKC QNH2963INS WND 290V020

Expired

Wind
  • 330° at 12 KTS
Conditions
Haze
Cloud Levels
  • Clear skies

Jun-26@
05:00 UTC

Jun-26 @ 05:00 UTC

Jun-26@
16:00 UTC

Jun-26 @ 16:00 UTC

BECMG 2605/2606 31014G22KT 8000 HZ SKC QNH2961INS WND 280V360

Becoming

Becoming Conditions expected by Wed, Jun 26, 2019 @ 06:00 UTC

Wind
  • 310° at 14 KTS
  • {Gusting to 22 KTS
Conditions
Haze
Cloud Levels
  • Clear skies

Jun-26@
09:00 UTC

Jun-26 @ 09:00 UTC

Jun-26@
15:00 UTC

Jun-26 @ 15:00 UTC

TEMPO 2609/2615 30017G27KT 6000 BLDU HZ

Temporary

Temporary Changes expected for less than half the time period

Wind
  • 300° at 17 KTS
  • {Gusting to 27 KTS
Conditions
Blowing Dust, Haze

Jun-26@
16:00 UTC

Jun-26 @ 16:00 UTC

Jun-27@
09:00 UTC

Jun-27 @ 09:00 UTC

BECMG 2616/2617 30009KT 9000 HZ SKC QNH2964NS TX48/2612Z TN28/2603Z

Becoming

Becoming Conditions expected by Wed, Jun 26, 2019 @ 17:00 UTC

Wind
  • 300° at 9 KTS
Conditions
Haze
Cloud Levels
  • Clear skies